createdAt,value
2017-11-09T00:02:16.152Z,85.60
2017-11-09T00:04:49.358Z,85.50
2017-11-09T00:07:17.006Z,85.50
2017-11-09T00:09:44.529Z,85.20
2017-11-09T00:12:12.088Z,85.00
2017-11-09T00:14:39.738Z,85.00
2017-11-09T00:17:07.252Z,85.10
2017-11-09T00:19:34.849Z,85.00
2017-11-09T00:22:02.529Z,85.80
2017-11-09T00:24:30.051Z,85.10
2017-11-09T00:26:57.553Z,85.10
2017-11-09T00:29:25.186Z,85.00
2017-11-09T00:31:53.531Z,85.00
2017-11-09T00:34:21.120Z,84.80
2017-11-09T00:36:48.770Z,85.00
2017-11-09T00:39:16.376Z,85.00
2017-11-09T00:41:44.022Z,85.00
2017-11-09T00:44:11.568Z,85.10
2017-11-09T00:46:39.256Z,84.90
2017-11-09T00:49:06.860Z,84.90
2017-11-09T00:51:34.469Z,85.10
2017-11-09T00:54:02.140Z,85.00
2017-11-09T00:56:29.745Z,85.20
2017-11-09T00:58:57.386Z,85.20
2017-11-09T01:01:25.123Z,85.20
2017-11-09T01:03:52.734Z,85.40
2017-11-09T01:06:20.289Z,85.30
2017-11-09T01:08:47.857Z,85.40
2017-11-09T01:11:15.458Z,85.40
2017-11-09T01:13:43.064Z,85.20
2017-11-09T01:16:11.545Z,85.30
2017-11-09T01:18:39.165Z,85.20
2017-11-09T01:21:06.746Z,85.20
2017-11-09T01:23:34.259Z,85.30
2017-11-09T01:26:01.776Z,85.40
2017-11-09T01:28:29.372Z,85.30
2017-11-09T01:30:56.988Z,85.10
2017-11-09T01:33:24.599Z,85.30
2017-11-09T01:35:52.282Z,85.20
2017-11-09T01:38:19.845Z,85.30
2017-11-09T01:40:47.547Z,86.00
2017-11-09T01:43:15.537Z,85.40
2017-11-09T01:45:43.193Z,85.50
2017-11-09T01:48:10.829Z,85.50
2017-11-09T01:50:38.489Z,85.50
2017-11-09T01:53:06.128Z,85.20
2017-11-09T01:55:33.768Z,85.30
2017-11-09T01:58:01.308Z,85.60
2017-11-09T02:00:28.998Z,85.10
2017-11-09T02:02:56.525Z,85.10
2017-11-09T02:05:24.133Z,85.30
2017-11-09T02:07:51.705Z,85.40
2017-11-09T02:10:19.268Z,85.70
2017-11-09T02:12:46.901Z,86.00
2017-11-09T02:15:14.539Z,85.70
2017-11-09T02:17:42.128Z,85.70
2017-11-09T02:20:09.671Z,85.90
2017-11-09T02:22:37.240Z,86.10
2017-11-09T02:25:04.858Z,86.10
2017-11-09T02:27:33.220Z,86.50
2017-11-09T02:30:00.844Z,86.40
2017-11-09T02:32:28.385Z,86.40
2017-11-09T02:34:55.968Z,86.20
2017-11-09T02:37:23.487Z,86.00
2017-11-09T02:39:51.795Z,85.70
2017-11-09T02:42:19.302Z,85.70
2017-11-09T02:44:46.806Z,85.90
2017-11-09T02:47:14.376Z,86.10
2017-11-09T02:49:41.910Z,86.10
2017-11-09T02:52:09.855Z,86.20
2017-11-09T02:54:38.311Z,86.10
2017-11-09T02:57:05.817Z,86.20
2017-11-09T02:59:33.389Z,86.30
2017-11-09T03:02:00.918Z,86.20
2017-11-09T03:04:29.239Z,86.70
2017-11-09T03:06:56.837Z,86.70
2017-11-09T03:09:24.364Z,86.80
2017-11-09T03:11:51.886Z,86.60
2017-11-09T03:14:19.522Z,86.50
2017-11-09T03:16:47.970Z,86.30
2017-11-09T03:19:15.567Z,86.30
2017-11-09T03:21:43.136Z,86.20
2017-11-09T03:24:10.665Z,86.40
2017-11-09T03:26:39.026Z,87.10
2017-11-09T03:29:06.678Z,86.70
2017-11-09T03:31:34.224Z,86.90
2017-11-09T03:34:01.763Z,87.10
2017-11-09T03:36:29.254Z,87.10
2017-11-09T03:38:56.771Z,86.70
2017-11-09T03:41:25.029Z,87.20
2017-11-09T03:43:52.528Z,87.10
2017-11-09T03:46:20.105Z,87.20
2017-11-09T03:48:47.703Z,87.00
2017-11-09T03:51:15.235Z,87.20
2017-11-09T03:53:42.852Z,87.10
2017-11-09T03:56:10.401Z,87.00
2017-11-09T03:58:37.962Z,86.90
2017-11-09T04:01:05.509Z,86.60
2017-11-09T04:03:33.193Z,86.70
2017-11-09T04:06:00.728Z,86.50
2017-11-09T04:08:28.208Z,86.60
2017-11-09T04:10:56.059Z,86.50
2017-11-09T04:13:23.650Z,86.30
2017-11-09T04:15:51.186Z,86.10
2017-11-09T04:18:19.636Z,86.30
2017-11-09T04:20:47.175Z,86.20
2017-11-09T04:23:15.691Z,86.20
2017-11-09T04:25:43.341Z,86.10
2017-11-09T04:28:11.766Z,86.10
2017-11-09T04:30:39.460Z,86.00
2017-11-09T04:33:07.373Z,86.00
2017-11-09T04:35:35.089Z,86.10
2017-11-09T04:38:02.635Z,86.30
2017-11-09T04:40:30.203Z,86.10
2017-11-09T04:42:57.759Z,86.10
2017-11-09T04:45:25.389Z,86.00
2017-11-09T04:47:53.021Z,86.10
2017-11-09T04:50:20.797Z,85.80
2017-11-09T04:52:48.558Z,85.70
2017-11-09T04:55:16.209Z,85.50
2017-11-09T04:57:45.480Z,85.80
2017-11-09T05:00:13.857Z,85.70
2017-11-09T05:02:41.523Z,85.80
2017-11-09T05:05:09.142Z,85.80
2017-11-09T05:07:36.939Z,85.70
2017-11-09T05:10:05.396Z,85.70
2017-11-09T05:12:33.116Z,86.20
2017-11-09T05:15:00.963Z,85.50
2017-11-09T05:17:32.464Z,85.60
2017-11-09T05:20:00.179Z,85.80
2017-11-09T05:22:27.946Z,86.20
2017-11-09T05:24:56.568Z,86.20
2017-11-09T05:27:24.278Z,86.20
2017-11-09T05:29:51.995Z,87.00
2017-11-09T05:32:19.747Z,87.90
2017-11-09T05:34:47.381Z,88.10
2017-11-09T05:39:54.570Z,88.50
2017-11-09T05:42:22.953Z,88.40
2017-11-09T05:44:51.384Z,87.20
2017-11-09T05:47:20.021Z,87.20
2017-11-09T05:49:47.678Z,87.30
2017-11-09T05:52:16.096Z,87.60
2017-11-09T05:54:43.755Z,87.30
2017-11-09T05:57:12.436Z,87.90
2017-11-09T05:59:41.432Z,88.40
2017-11-09T06:02:16.728Z,88.50
2017-11-09T06:04:44.684Z,88.20
2017-11-09T06:07:13.940Z,88.40
2017-11-09T06:23:30.549Z,88.70
2017-11-09T06:25:58.070Z,89.20
2017-11-09T06:28:25.636Z,89.50
2017-11-09T06:30:53.125Z,89.60
2017-11-09T06:33:21.703Z,89.60
2017-11-09T06:35:49.259Z,89.60
2017-11-09T06:38:16.847Z,89.30
2017-11-09T06:40:44.372Z,88.80
2017-11-09T06:43:11.998Z,88.60
2017-11-09T06:45:40.308Z,88.60
2017-11-09T06:48:07.936Z,88.60
2017-11-09T06:50:35.593Z,88.20
2017-11-09T06:53:03.214Z,88.40
2017-11-09T06:55:30.820Z,88.10
2017-11-09T06:58:01.466Z,88.20
2017-11-09T07:00:32.113Z,88.20
2017-11-09T07:03:00.407Z,88.30
2017-11-09T07:05:27.951Z,88.20
2017-11-09T07:07:55.562Z,88.50
2017-11-09T07:10:23.182Z,88.50
2017-11-09T07:12:50.871Z,88.30
2017-11-09T07:15:18.445Z,88.50
2017-11-09T07:17:46.128Z,88.50
2017-11-09T07:20:14.420Z,88.60
2017-11-09T07:22:42.137Z,88.50
2017-11-09T07:25:09.960Z,88.30
2017-11-09T07:27:39.820Z,88.10
2017-11-09T07:30:09.805Z,88.10
2017-11-09T07:32:37.907Z,88.40
2017-11-09T07:35:05.468Z,88.50
2017-11-09T07:37:33.529Z,88.60
2017-11-09T07:40:01.397Z,88.70
2017-11-09T07:42:29.149Z,88.90
2017-11-09T07:44:59.683Z,88.70
2017-11-09T07:47:27.203Z,88.70
2017-11-09T07:49:54.701Z,89.00
2017-11-09T07:52:22.290Z,88.90
2017-11-09T07:54:52.687Z,88.80
2017-11-09T07:57:20.209Z,89.10
2017-11-09T07:59:47.992Z,89.20
2017-11-09T08:02:16.176Z,89.20
2017-11-09T08:04:43.856Z,88.80
2017-11-09T08:07:11.489Z,88.50
2017-11-09T08:09:39.872Z,88.60
2017-11-09T08:12:07.496Z,88.40
2017-11-09T08:14:35.792Z,88.20
2017-11-09T08:17:03.412Z,88.10
2017-11-09T08:19:31.020Z,87.60
2017-11-09T08:21:58.548Z,87.60
2017-11-09T08:24:29.138Z,87.80
2017-11-09T08:26:57.159Z,88.10
2017-11-09T08:29:25.117Z,87.30
2017-11-09T08:31:53.047Z,86.20
2017-11-09T08:34:20.737Z,86.60
2017-11-09T08:36:48.379Z,86.90
2017-11-09T08:39:19.853Z,87.10
2017-11-09T08:41:47.421Z,87.10
2017-11-09T08:44:15.013Z,87.10
2017-11-09T08:46:42.555Z,87.40
2017-11-09T08:49:10.104Z,87.10
2017-11-09T08:51:37.629Z,87.00
2017-11-09T08:54:05.214Z,87.00
2017-11-09T08:56:33.473Z,86.00
2017-11-09T08:59:00.995Z,85.80
2017-11-09T09:01:28.517Z,85.90
2017-11-09T09:03:56.051Z,85.60
2017-11-09T09:06:23.601Z,85.60
2017-11-09T09:08:51.249Z,85.50
2017-11-09T09:11:18.919Z,85.50
2017-11-09T09:13:46.435Z,85.30
2017-11-09T09:16:13.973Z,85.40
2017-11-09T09:18:42.366Z,85.70
2017-11-09T09:24:33.661Z,85.60
2017-11-09T09:27:21.432Z,85.50
2017-11-09T09:29:55.142Z,85.70
2017-11-09T09:32:42.654Z,85.20
2017-11-09T09:35:18.934Z,85.20
2017-11-09T09:37:50.333Z,85.00
2017-11-09T09:40:28.375Z,85.30
2017-11-09T09:42:58.574Z,85.30
2017-11-09T09:45:27.654Z,84.70
2017-11-09T09:47:56.145Z,84.30
2017-11-09T09:50:24.194Z,84.10
2017-11-09T09:52:53.398Z,84.20
2017-11-09T09:55:21.306Z,84.20
2017-11-09T09:57:49.255Z,84.20
2017-11-09T10:00:18.151Z,84.30
2017-11-09T10:02:46.012Z,84.50
2017-11-09T10:05:15.182Z,84.70
2017-11-09T10:07:44.110Z,85.00
2017-11-09T10:10:12.281Z,84.70
2017-11-09T10:12:40.309Z,84.90
2017-11-09T10:15:08.833Z,84.50
2017-11-09T10:17:37.112Z,84.50
2017-11-09T10:20:05.585Z,84.20
2017-11-09T10:22:33.927Z,84.30
2017-11-09T10:25:06.266Z,84.50
2017-11-09T10:27:34.857Z,84.50
2017-11-09T10:30:03.696Z,84.50
2017-11-09T10:32:32.293Z,84.30
2017-11-09T10:35:07.330Z,84.60
2017-11-09T10:37:46.586Z,84.40
2017-11-09T10:40:21.441Z,84.10
2017-11-09T10:42:49.430Z,83.70
2017-11-09T10:45:19.489Z,84.10
2017-11-09T10:47:52.673Z,83.50
2017-11-09T10:50:32.715Z,83.90
2017-11-09T10:55:41.444Z,83.60
2017-11-09T10:58:10.294Z,83.60
2017-11-09T11:00:44.194Z,83.60
2017-11-09T11:03:13.144Z,83.50
2017-11-09T11:05:41.216Z,83.60
2017-11-09T11:08:09.717Z,83.60
2017-11-09T11:10:38.308Z,83.50
2017-11-09T11:13:07.983Z,84.00
2017-11-09T11:15:37.220Z,83.70
2017-11-09T11:18:05.018Z,84.50
2017-11-09T11:20:34.173Z,84.00
2017-11-09T11:23:03.862Z,84.60
2017-11-09T11:25:32.365Z,84.50
2017-11-09T11:28:00.413Z,84.70
2017-11-09T11:30:28.800Z,84.70
2017-11-09T11:32:56.684Z,84.60
2017-11-09T11:35:25.243Z,84.60
2017-11-09T11:37:53.640Z,84.40
2017-11-09T11:40:21.479Z,84.80
2017-11-09T11:42:54.596Z,84.30
2017-11-09T11:45:24.522Z,84.20
2017-11-09T11:48:03.372Z,84.10
2017-11-09T11:50:35.396Z,84.20
2017-11-09T11:53:05.279Z,84.10
2017-11-09T11:55:33.286Z,83.40
2017-11-09T11:58:01.807Z,83.40
2017-11-09T12:00:32.810Z,83.70
2017-11-09T12:03:02.722Z,83.50
2017-11-09T12:05:34.369Z,82.20
2017-11-09T12:08:05.631Z,82.10
2017-11-09T12:10:36.199Z,82.00
2017-11-09T12:13:08.732Z,82.40
2017-11-09T12:15:36.960Z,82.40
2017-11-09T12:18:15.876Z,82.00
2017-11-09T12:20:52.895Z,82.50
2017-11-09T12:23:26.464Z,81.60
2017-11-09T12:28:33.864Z,81.40
2017-11-09T12:31:04.743Z,81.20
2017-11-09T12:33:34.878Z,81.30
2017-11-09T12:36:03.927Z,81.00
2017-11-09T12:38:33.059Z,81.10
2017-11-09T12:41:04.189Z,81.20
2017-11-09T12:43:36.739Z,81.40
2017-11-09T12:46:05.653Z,81.30
2017-11-09T12:48:34.202Z,81.10
2017-11-09T12:51:02.491Z,80.70
2017-11-09T12:53:31.221Z,80.90
2017-11-09T12:55:59.241Z,80.80
2017-11-09T13:01:01.398Z,81.20
2017-11-09T13:03:29.794Z,81.20
2017-11-09T13:05:57.707Z,81.20
2017-11-09T13:08:26.163Z,81.00
2017-11-09T13:10:55.262Z,80.90
2017-11-09T13:13:23.529Z,81.10
2017-11-09T13:15:51.346Z,81.20
2017-11-09T13:18:19.667Z,81.10
2017-11-09T13:20:47.865Z,81.30
2017-11-09T13:23:15.612Z,81.60
2017-11-09T13:25:44.404Z,81.50
2017-11-09T13:28:12.582Z,81.50
2017-11-09T13:30:41.165Z,81.10
2017-11-09T13:33:09.103Z,81.30
2017-11-09T13:35:36.984Z,81.20
2017-11-09T13:38:05.672Z,81.90
2017-11-09T13:40:34.006Z,81.00
2017-11-09T13:43:04.535Z,81.00
2017-11-09T13:45:33.312Z,81.10
2017-11-09T13:48:01.874Z,81.40
2017-11-09T13:50:29.824Z,81.40
2017-11-09T13:52:57.667Z,81.80
2017-11-09T13:55:30.451Z,81.50
2017-11-09T13:58:01.926Z,81.50
2017-11-09T14:00:29.910Z,81.70
2017-11-09T14:02:58.188Z,81.50
2017-11-09T14:05:26.361Z,82.00
2017-11-09T14:07:55.461Z,82.30
2017-11-09T14:10:23.578Z,82.40
2017-11-09T14:12:52.284Z,82.80
2017-11-09T14:15:20.509Z,82.80
2017-11-09T14:17:48.417Z,82.80
2017-11-09T14:20:16.314Z,83.00
2017-11-09T14:22:44.185Z,83.20
2017-11-09T14:25:12.324Z,83.40
2017-11-09T14:27:40.166Z,83.50
2017-11-09T14:30:08.161Z,83.90
2017-11-09T14:32:38.107Z,84.00
2017-11-09T14:35:05.847Z,84.20
2017-11-09T14:37:34.183Z,84.30
2017-11-09T14:40:04.119Z,84.60
2017-11-09T14:42:33.327Z,84.70
2017-11-09T14:45:01.230Z,84.80
2017-11-09T14:47:32.487Z,85.10
2017-11-09T14:50:00.561Z,85.30
2017-11-09T14:52:29.344Z,86.60
2017-11-09T14:54:58.738Z,87.00
2017-11-09T14:57:27.978Z,87.50
2017-11-09T14:59:56.659Z,86.90
2017-11-09T15:02:24.385Z,86.80
2017-11-09T15:04:53.262Z,86.90
2017-11-09T15:07:22.032Z,87.00
2017-11-09T15:09:49.935Z,87.10
2017-11-09T15:12:18.874Z,87.40
2017-11-09T15:14:47.527Z,87.60
2017-11-09T15:17:16.622Z,87.50
2017-11-09T15:19:44.860Z,87.80
2017-11-09T15:22:12.699Z,88.10
2017-11-09T15:24:51.003Z,88.00
2017-11-09T15:27:19.016Z,88.10
2017-11-09T15:29:47.021Z,88.20
2017-11-09T15:32:14.962Z,88.10
2017-11-09T15:34:43.040Z,88.30
2017-11-09T15:37:11.498Z,88.50
2017-11-09T15:39:40.056Z,88.80
2017-11-09T15:42:08.755Z,88.60
2017-11-09T15:44:36.651Z,88.70
2017-11-09T15:47:04.604Z,89.00
2017-11-09T15:49:33.676Z,89.10
2017-11-09T15:52:02.069Z,89.30
2017-11-09T15:54:32.685Z,89.40
2017-11-09T15:57:00.777Z,89.40
2017-11-09T16:02:01.469Z,89.30
2017-11-09T16:04:29.378Z,89.50
2017-11-09T16:07:01.588Z,89.80
2017-11-09T16:09:29.648Z,89.70
2017-11-09T16:11:57.697Z,89.50
2017-11-09T16:14:26.257Z,89.50
2017-11-09T16:16:57.902Z,89.10
2017-11-09T16:19:26.937Z,89.00
2017-11-09T16:21:54.887Z,88.80
2017-11-09T16:24:23.374Z,88.80
2017-11-09T16:26:57.645Z,88.90
2017-11-09T16:29:26.622Z,88.80
2017-11-09T16:31:57.768Z,88.50
2017-11-09T16:34:26.880Z,88.50
2017-11-09T16:36:57.879Z,88.60
2017-11-09T16:39:28.998Z,88.50
2017-11-09T16:41:57.182Z,88.70
2017-11-09T16:44:38.598Z,88.50
2017-11-09T16:47:10.588Z,88.10
2017-11-09T16:52:29.512Z,88.40
2017-11-09T16:54:59.852Z,87.80
2017-11-09T16:57:29.379Z,88.10
2017-11-09T17:00:01.584Z,88.20
2017-11-09T17:02:30.161Z,88.30
2017-11-09T17:07:35.794Z,88.20
2017-11-09T17:10:05.408Z,88.40
2017-11-09T17:12:45.435Z,88.50
2017-11-09T17:15:17.798Z,88.00
2017-11-09T17:17:46.107Z,88.60
2017-11-09T17:20:14.099Z,87.50
2017-11-09T17:22:42.409Z,87.80
2017-11-09T17:25:13.160Z,88.10
2017-11-09T17:27:42.621Z,87.60
2017-11-09T17:30:12.601Z,87.60
2017-11-09T17:32:42.720Z,87.60
2017-11-09T17:35:14.400Z,88.00
2017-11-09T17:37:42.722Z,88.80
2017-11-09T17:40:12.262Z,89.50
2017-11-09T17:42:42.286Z,90.00
2017-11-09T17:45:12.132Z,89.80
2017-11-09T17:47:41.052Z,90.10
2017-11-09T17:50:10.648Z,90.30
2017-11-09T17:52:38.981Z,90.40
2017-11-09T17:55:06.841Z,90.40
2017-11-09T17:57:34.652Z,90.30
2017-11-09T18:00:07.863Z,90.30
2017-11-09T18:02:35.448Z,90.30
2017-11-09T18:05:03.310Z,90.10
2017-11-09T18:07:31.170Z,90.00
2017-11-09T18:09:59.261Z,90.00
2017-11-09T18:12:26.866Z,90.00
2017-11-09T18:14:55.240Z,90.40
2017-11-09T18:17:24.022Z,90.40
2017-11-09T18:19:51.603Z,90.60
2017-11-09T18:22:19.512Z,90.80
2017-11-09T18:24:49.953Z,91.00
2017-11-09T18:27:17.584Z,91.20
2017-11-09T18:29:45.337Z,91.30
2017-11-09T18:32:12.984Z,91.60
2017-11-09T18:34:40.763Z,91.70
2017-11-09T18:37:08.712Z,91.80
2017-11-09T18:39:36.365Z,91.80
2017-11-09T18:42:04.174Z,91.80
2017-11-09T18:44:31.729Z,91.90
2017-11-09T18:47:00.682Z,92.00
2017-11-09T18:49:28.386Z,92.20
2017-11-09T18:51:55.991Z,92.10
2017-11-09T18:54:24.361Z,92.20
2017-11-09T18:56:51.942Z,92.10
2017-11-09T18:59:19.590Z,92.20
2017-11-09T19:01:47.563Z,92.20
2017-11-09T19:04:16.858Z,92.30
2017-11-09T19:06:48.003Z,92.20
2017-11-09T19:09:22.088Z,92.10
2017-11-09T19:11:49.984Z,92.10
2017-11-09T19:14:17.788Z,92.00
2017-11-09T19:16:45.652Z,91.90
2017-11-09T19:19:14.543Z,91.80
2017-11-09T19:21:44.149Z,91.80
2017-11-09T19:24:11.705Z,91.80
2017-11-09T19:26:39.825Z,91.80
2017-11-09T19:29:08.433Z,91.70
2017-11-09T19:31:37.193Z,91.60
2017-11-09T19:34:05.122Z,91.60
2017-11-09T19:36:32.872Z,91.70
2017-11-09T19:39:02.027Z,91.60
2017-11-09T19:41:30.448Z,91.90
2017-11-09T19:44:00.130Z,91.60
2017-11-09T19:46:28.134Z,91.80
2017-11-09T19:48:55.705Z,91.90
2017-11-09T19:51:24.532Z,92.00
2017-11-09T19:53:52.051Z,92.20
2017-11-09T19:56:19.663Z,92.40
2017-11-09T19:58:48.649Z,92.40
2017-11-09T20:01:16.167Z,92.60
2017-11-09T20:03:43.913Z,92.70
2017-11-09T20:06:12.393Z,93.00
2017-11-09T20:08:40.127Z,93.20
2017-11-09T20:11:11.013Z,93.20
2017-11-09T20:13:38.820Z,93.30
2017-11-09T20:16:07.029Z,93.40
2017-11-09T20:18:37.129Z,93.30
2017-11-09T20:21:08.564Z,93.50
2017-11-09T20:23:36.285Z,93.50
2017-11-09T20:26:04.095Z,93.50
2017-11-09T20:28:31.767Z,93.60
2017-11-09T20:30:59.567Z,93.60
2017-11-09T20:33:27.625Z,93.50
2017-11-09T20:35:55.409Z,93.60
2017-11-09T20:38:22.996Z,93.80
2017-11-09T20:40:50.585Z,93.80
2017-11-09T20:43:18.094Z,93.80
2017-11-09T20:45:45.714Z,93.90
2017-11-09T20:48:13.307Z,94.10
2017-11-09T20:50:40.875Z,94.20
2017-11-09T20:53:08.559Z,94.20
2017-11-09T20:55:36.180Z,94.10
2017-11-09T20:58:03.723Z,94.10
2017-11-09T21:00:31.369Z,94.20
2017-11-09T21:02:59.094Z,94.20
2017-11-09T21:05:26.627Z,94.20
2017-11-09T21:07:54.172Z,94.00
2017-11-09T21:10:22.624Z,94.00
2017-11-09T21:12:50.184Z,94.00
2017-11-09T21:15:21.842Z,94.00
2017-11-09T21:17:53.232Z,94.00
2017-11-09T21:23:00.387Z,94.10
2017-11-09T21:25:27.992Z,94.10
2017-11-09T21:27:55.833Z,94.20
2017-11-09T21:30:23.528Z,94.00
2017-11-09T21:32:53.648Z,94.10
2017-11-09T21:35:23.727Z,94.20
2017-11-09T21:37:51.661Z,94.20
2017-11-09T21:40:20.412Z,94.10
2017-11-09T21:42:48.431Z,93.90
2017-11-09T21:45:16.025Z,94.20
2017-11-09T21:47:43.831Z,93.90
2017-11-09T21:50:11.505Z,93.80
2017-11-09T21:52:39.103Z,93.70
2017-11-09T21:55:07.987Z,93.80
2017-11-09T21:57:35.691Z,93.70
2017-11-09T22:00:05.060Z,93.60
2017-11-09T22:02:33.154Z,93.60
2017-11-09T22:05:02.232Z,93.60
2017-11-09T22:07:30.396Z,93.70
2017-11-09T22:09:57.961Z,93.70
2017-11-09T22:12:25.928Z,93.90
2017-11-09T22:14:53.895Z,93.80
2017-11-09T22:17:22.412Z,93.70
2017-11-09T22:19:50.962Z,93.80
2017-11-09T22:22:18.682Z,93.70
2017-11-09T22:24:46.347Z,93.70
2017-11-09T22:27:14.197Z,93.60
2017-11-09T22:29:41.836Z,93.60
2017-11-09T22:32:09.504Z,93.60
2017-11-09T22:34:37.211Z,93.60
2017-11-09T22:37:08.332Z,93.60
2017-11-09T22:42:34.909Z,93.60
2017-11-09T22:45:02.531Z,93.60
2017-11-09T22:47:31.807Z,93.60
2017-11-09T22:50:00.156Z,93.50
2017-11-09T22:52:27.711Z,93.40
2017-11-09T22:54:55.217Z,93.50
2017-11-09T22:57:22.766Z,93.50
2017-11-09T22:59:50.308Z,93.50
2017-11-09T23:02:17.856Z,93.30
2017-11-09T23:04:45.723Z,93.10
2017-11-09T23:07:13.355Z,93.30
2017-11-09T23:09:41.254Z,93.20
2017-11-09T23:12:15.436Z,93.30
2017-11-09T23:14:43.982Z,93.40
2017-11-09T23:17:11.511Z,93.50
2017-11-09T23:19:39.109Z,93.50
2017-11-09T23:22:06.661Z,93.50
2017-11-09T23:24:34.278Z,93.60
2017-11-09T23:27:01.808Z,93.50
2017-11-09T23:29:29.316Z,93.50
2017-11-09T23:31:56.882Z,93.40
2017-11-09T23:34:24.414Z,93.40
2017-11-09T23:36:51.924Z,93.50
2017-11-09T23:39:19.474Z,93.00
2017-11-09T23:41:47.111Z,93.00
2017-11-09T23:44:15.392Z,92.90
2017-11-09T23:46:42.910Z,92.90
2017-11-09T23:49:10.415Z,92.80
2017-11-09T23:51:38.723Z,92.70
2017-11-09T23:54:06.284Z,92.70
2017-11-09T23:56:33.783Z,92.70
2017-11-09T23:59:01.353Z,92.70
